createdAt,value
2023-03-25T00:00:16.562Z,7.51
2023-03-25T00:02:45.276Z,7.43
2023-03-25T00:05:15.089Z,7.44
2023-03-25T00:07:43.461Z,7.45
2023-03-25T00:10:12.272Z,7.38
2023-03-25T00:12:39.129Z,7.39
2023-03-25T00:15:10.962Z,7.37
2023-03-25T00:17:38.674Z,7.34
2023-03-25T00:20:10.010Z,7.35
2023-03-25T00:22:41.103Z,7.39
2023-03-25T00:25:16.745Z,7.41
2023-03-25T00:27:46.406Z,7.47
2023-03-25T00:30:14.773Z,7.47
2023-03-25T00:32:41.509Z,7.46
2023-03-25T00:35:08.676Z,7.37
2023-03-25T00:37:35.538Z,7.38
2023-03-25T00:40:03.566Z,7.34
2023-03-25T00:42:30.154Z,7.33
2023-03-25T00:44:56.910Z,7.28
2023-03-25T00:47:24.451Z,7.30
2023-03-25T00:49:51.943Z,7.31
2023-03-25T00:52:19.401Z,7.26
2023-03-25T00:54:46.597Z,7.20
2023-03-25T00:57:13.417Z,7.18
2023-03-25T00:59:40.558Z,7.12
2023-03-25T01:02:07.361Z,7.12
2023-03-25T01:04:41.588Z,7.09
2023-03-25T01:07:09.294Z,7.09
2023-03-25T01:09:36.191Z,7.09
2023-03-25T01:12:02.850Z,7.04
2023-03-25T01:14:29.536Z,7.05
2023-03-25T01:16:58.362Z,7.06
2023-03-25T01:19:25.348Z,7.04
2023-03-25T01:21:52.843Z,7.09
2023-03-25T01:24:20.356Z,7.09
2023-03-25T01:26:47.045Z,7.09
2023-03-25T01:29:16.092Z,7.12
2023-03-25T01:31:43.115Z,7.07
2023-03-25T01:34:10.311Z,7.05
2023-03-25T01:36:39.891Z,7.06
2023-03-25T01:39:08.722Z,7.01
2023-03-25T01:41:49.027Z,7.05
2023-03-25T01:44:19.603Z,7.05
2023-03-25T01:46:49.376Z,7.03
2023-03-25T01:49:24.696Z,7.01
2023-03-25T01:51:57.788Z,6.99
2023-03-25T01:54:24.657Z,7.01
2023-03-25T01:56:52.345Z,7.02
2023-03-25T01:59:24.894Z,6.99
2023-03-25T02:01:53.694Z,7.00
2023-03-25T02:04:28.939Z,7.01
2023-03-25T02:06:57.358Z,7.04
2023-03-25T02:09:26.484Z,7.04
2023-03-25T02:11:54.975Z,7.05
2023-03-25T02:14:26.987Z,7.04
2023-03-25T02:17:24.841Z,6.99
2023-03-25T02:20:13.878Z,6.96
2023-03-25T02:22:43.182Z,6.96
2023-03-25T02:25:19.306Z,6.92
2023-03-25T02:28:10.226Z,6.91
2023-03-25T02:30:45.793Z,6.82
2023-03-25T02:33:37.188Z,6.78
2023-03-25T02:36:22.341Z,6.74
2023-03-25T02:38:53.927Z,6.75
2023-03-25T02:41:29.789Z,6.73
2023-03-25T02:44:03.765Z,6.70
2023-03-25T02:46:33.094Z,6.66
2023-03-25T02:49:05.182Z,6.62
2023-03-25T02:51:37.566Z,6.55
2023-03-25T02:54:09.401Z,6.57
2023-03-25T02:56:38.054Z,6.59
2023-03-25T02:59:08.086Z,6.60
2023-03-25T03:01:36.394Z,6.63
2023-03-25T03:04:03.299Z,6.61
2023-03-25T03:06:30.157Z,6.66
2023-03-25T03:09:16.003Z,6.71
2023-03-25T03:11:57.178Z,6.72
2023-03-25T03:14:42.162Z,6.74
2023-03-25T03:17:20.172Z,6.77
2023-03-25T03:20:00.344Z,6.77
2023-03-25T03:22:42.041Z,6.76
2023-03-25T03:25:30.441Z,6.79
2023-03-25T03:28:08.806Z,6.82
2023-03-25T03:30:54.409Z,6.83
2023-03-25T03:34:10.497Z,6.85
2023-03-25T03:36:45.966Z,6.87
2023-03-25T03:39:36.664Z,6.88
2023-03-25T03:42:23.904Z,6.91
2023-03-25T03:44:54.366Z,6.97
2023-03-25T03:47:26.280Z,6.98
2023-03-25T03:49:59.137Z,6.99
2023-03-25T03:52:33.428Z,7.00
2023-03-25T03:55:29.331Z,7.02
2023-03-25T03:58:01.975Z,6.99
2023-03-25T04:00:50.667Z,7.00
2023-03-25T04:03:24.667Z,7.02
2023-03-25T04:06:00.993Z,7.04
2023-03-25T04:08:34.581Z,7.04
2023-03-25T04:11:17.579Z,7.01
2023-03-25T04:13:46.683Z,7.01
2023-03-25T04:16:13.425Z,7.03
2023-03-25T04:18:40.216Z,7.04
2023-03-25T04:21:07.403Z,7.04
2023-03-25T04:23:34.830Z,7.05
2023-03-25T04:26:03.016Z,7.08
2023-03-25T04:28:31.788Z,7.09
2023-03-25T04:31:00.721Z,7.11
2023-03-25T04:33:32.069Z,7.08
2023-03-25T04:36:02.043Z,7.09
2023-03-25T04:38:29.499Z,7.08
2023-03-25T04:40:56.346Z,7.10
2023-03-25T04:43:23.043Z,7.14
2023-03-25T04:45:54.542Z,7.15
2023-03-25T04:48:26.091Z,7.15
2023-03-25T04:50:52.820Z,7.14
2023-03-25T04:53:19.477Z,7.12
2023-03-25T04:55:49.571Z,7.13
2023-03-25T04:58:16.468Z,7.15
2023-03-25T05:00:44.840Z,7.16
2023-03-25T05:03:11.891Z,7.20
2023-03-25T05:05:39.248Z,7.20
2023-03-25T05:08:05.933Z,7.20
2023-03-25T05:10:32.567Z,7.19
2023-03-25T05:13:01.482Z,7.22
2023-03-25T05:15:30.871Z,7.22
2023-03-25T05:17:57.699Z,7.22
2023-03-25T05:20:24.752Z,7.23
2023-03-25T05:22:53.512Z,7.23
2023-03-25T05:25:23.227Z,7.23
2023-03-25T05:27:49.854Z,7.23
2023-03-25T05:30:16.504Z,7.24
2023-03-25T05:32:45.853Z,7.25
2023-03-25T05:35:12.730Z,7.24
2023-03-25T05:37:39.394Z,7.19
2023-03-25T05:40:14.768Z,7.19
2023-03-25T05:42:47.090Z,7.18
2023-03-25T05:45:13.918Z,7.15
2023-03-25T05:47:41.276Z,7.12
2023-03-25T05:50:08.840Z,7.07
2023-03-25T05:52:36.573Z,7.02
2023-03-25T05:55:05.047Z,7.03
2023-03-25T05:57:31.719Z,7.04
2023-03-25T05:59:58.303Z,7.04
2023-03-25T06:02:25.607Z,7.12
2023-03-25T06:04:52.370Z,7.06
2023-03-25T06:07:22.391Z,7.09
2023-03-25T06:09:50.189Z,7.09
2023-03-25T06:12:22.600Z,7.11
2023-03-25T06:14:54.173Z,7.11
2023-03-25T06:17:24.899Z,7.15
2023-03-25T06:19:51.930Z,7.18
2023-03-25T06:22:22.048Z,7.17
2023-03-25T06:24:48.902Z,7.17
2023-03-25T06:27:17.980Z,7.17
2023-03-25T06:29:45.806Z,7.21
2023-03-25T06:32:13.879Z,7.20
2023-03-25T06:34:42.965Z,7.16
2023-03-25T06:37:10.488Z,7.17
2023-03-25T06:39:40.427Z,7.18
2023-03-25T06:42:07.477Z,7.22
2023-03-25T06:44:34.146Z,7.24
2023-03-25T06:47:02.539Z,7.22
2023-03-25T06:49:29.476Z,7.14
2023-03-25T06:51:56.927Z,7.08
2023-03-25T06:54:24.188Z,7.06
2023-03-25T06:56:50.937Z,7.09
2023-03-25T06:59:18.136Z,7.18
2023-03-25T07:01:44.870Z,7.22
2023-03-25T07:04:11.664Z,7.23
2023-03-25T07:06:38.337Z,7.24
2023-03-25T07:09:05.265Z,7.33
2023-03-25T07:11:33.092Z,7.40
2023-03-25T07:14:00.245Z,7.42
2023-03-25T07:16:27.220Z,7.43
2023-03-25T07:18:57.729Z,7.47
2023-03-25T07:21:26.000Z,7.49
2023-03-25T07:23:53.248Z,7.52
2023-03-25T07:26:19.973Z,7.58
2023-03-25T07:28:48.040Z,7.65
2023-03-25T07:31:16.452Z,7.68
2023-03-25T07:33:43.615Z,7.69
2023-03-25T07:36:12.589Z,7.70
2023-03-25T07:38:39.248Z,7.77
2023-03-25T07:41:11.309Z,7.86
2023-03-25T07:43:38.827Z,7.91
2023-03-25T07:46:05.983Z,7.91
2023-03-25T07:48:33.403Z,7.91
2023-03-25T07:51:00.383Z,7.88
2023-03-25T07:53:27.557Z,7.94
2023-03-25T07:55:54.230Z,7.89
2023-03-25T07:58:21.229Z,7.95
2023-03-25T08:00:47.842Z,7.97
2023-03-25T08:03:15.665Z,8.05
2023-03-25T08:05:48.911Z,8.08
2023-03-25T08:08:16.058Z,8.10
2023-03-25T08:10:43.793Z,8.05
2023-03-25T08:13:11.982Z,8.18
2023-03-25T08:15:39.429Z,8.29
2023-03-25T08:18:07.444Z,8.38
2023-03-25T08:20:35.040Z,8.45
2023-03-25T08:23:03.007Z,8.44
2023-03-25T08:25:30.878Z,8.49
2023-03-25T08:27:57.532Z,8.54
2023-03-25T08:30:24.206Z,8.57
2023-03-25T08:32:54.858Z,8.59
2023-03-25T08:35:23.708Z,8.64
2023-03-25T08:37:50.732Z,8.72
2023-03-25T08:40:17.450Z,8.82
2023-03-25T08:42:44.506Z,8.89
2023-03-25T08:45:11.518Z,8.93
2023-03-25T08:47:39.425Z,9.02
2023-03-25T08:50:06.581Z,9.12
2023-03-25T08:52:33.432Z,9.21
2023-03-25T08:55:00.057Z,9.30
2023-03-25T08:57:26.852Z,9.37
2023-03-25T08:59:53.436Z,9.44
2023-03-25T09:02:20.067Z,9.54
2023-03-25T09:04:49.162Z,9.59
2023-03-25T09:07:15.944Z,9.70
2023-03-25T09:09:42.688Z,9.74
2023-03-25T09:12:09.721Z,9.68
2023-03-25T09:14:36.589Z,9.81
2023-03-25T09:17:06.011Z,9.84
2023-03-25T09:19:35.249Z,9.91
2023-03-25T09:22:01.930Z,9.83
2023-03-25T09:24:28.544Z,9.82
2023-03-25T09:26:55.161Z,9.90
2023-03-25T09:29:22.336Z,9.84
2023-03-25T09:31:48.982Z,9.85
2023-03-25T09:34:16.239Z,9.88
2023-03-25T09:36:43.184Z,9.89
2023-03-25T09:39:09.935Z,9.92
2023-03-25T09:41:39.566Z,9.99
2023-03-25T09:44:22.122Z,9.94
2023-03-25T09:46:49.479Z,9.91
2023-03-25T09:49:26.187Z,10.01
2023-03-25T09:51:54.980Z,9.99
2023-03-25T09:54:31.759Z,10.10
2023-03-25T09:57:01.450Z,10.23
2023-03-25T09:59:43.694Z,10.30
2023-03-25T10:02:19.329Z,10.28
2023-03-25T10:04:58.228Z,10.34
2023-03-25T10:07:43.142Z,10.46
2023-03-25T10:10:31.662Z,10.45
2023-03-25T10:13:13.816Z,10.48
2023-03-25T10:16:08.272Z,10.55
2023-03-25T10:19:03.208Z,10.74
2023-03-25T10:21:48.292Z,10.88
2023-03-25T10:24:37.188Z,11.02
2023-03-25T10:27:13.053Z,11.11
2023-03-25T10:29:49.723Z,11.26
2023-03-25T10:32:19.340Z,11.42
2023-03-25T10:34:50.473Z,11.33
2023-03-25T10:37:25.215Z,11.37
2023-03-25T10:39:52.203Z,11.40
2023-03-25T10:42:21.641Z,11.15
2023-03-25T10:44:48.825Z,11.06
2023-03-25T10:47:22.698Z,10.99
2023-03-25T10:49:52.685Z,11.07
2023-03-25T10:52:20.861Z,11.25
2023-03-25T10:54:53.584Z,11.43
2023-03-25T10:57:31.771Z,11.39
2023-03-25T11:00:26.418Z,11.43
2023-03-25T11:02:55.133Z,11.52
2023-03-25T11:05:25.974Z,11.51
2023-03-25T11:08:06.642Z,11.52
2023-03-25T11:10:38.858Z,11.57
2023-03-25T11:13:13.174Z,11.55
2023-03-25T11:15:41.270Z,11.65
2023-03-25T11:18:28.816Z,11.80
2023-03-25T11:21:08.444Z,11.73
2023-03-25T11:23:44.502Z,11.51
2023-03-25T11:26:21.923Z,11.45
2023-03-25T11:28:56.784Z,11.43
2023-03-25T11:31:26.528Z,11.24
2023-03-25T11:34:13.154Z,11.28
2023-03-25T11:37:18.039Z,11.34
2023-03-25T11:39:55.484Z,11.30
2023-03-25T11:42:37.287Z,11.39
2023-03-25T11:45:04.699Z,11.50
2023-03-25T11:47:35.216Z,11.59
2023-03-25T11:50:02.540Z,11.67
2023-03-25T11:52:43.272Z,11.43
2023-03-25T11:55:23.836Z,11.61
2023-03-25T11:57:52.432Z,11.67
2023-03-25T12:00:24.996Z,11.64
2023-03-25T12:03:02.064Z,11.80
2023-03-25T12:05:29.246Z,11.75
2023-03-25T12:08:18.064Z,11.81
2023-03-25T12:11:00.781Z,11.79
2023-03-25T12:13:42.516Z,11.82
2023-03-25T12:16:21.347Z,11.77
2023-03-25T12:18:51.502Z,11.93
2023-03-25T12:21:26.284Z,12.13
2023-03-25T12:24:31.608Z,12.25
2023-03-25T12:27:28.491Z,12.21
2023-03-25T12:30:14.403Z,12.05
2023-03-25T12:32:44.111Z,12.08
2023-03-25T12:35:16.853Z,12.12
2023-03-25T12:38:02.013Z,12.24
2023-03-25T12:41:09.042Z,12.19
2023-03-25T12:44:09.154Z,12.17
2023-03-25T12:46:56.920Z,12.12
2023-03-25T12:49:36.947Z,11.98
2023-03-25T12:52:21.912Z,11.73
2023-03-25T12:55:04.807Z,11.62
2023-03-25T12:58:19.604Z,11.60
2023-03-25T13:01:31.074Z,11.60
2023-03-25T13:04:31.584Z,11.71
2023-03-25T13:07:01.944Z,11.76
2023-03-25T13:09:42.210Z,11.84
2023-03-25T13:12:19.675Z,11.78
2023-03-25T13:14:54.662Z,11.71
2023-03-25T13:17:34.784Z,11.62
2023-03-25T13:20:06.410Z,11.72
2023-03-25T13:22:36.748Z,11.61
2023-03-25T13:25:08.596Z,11.53
2023-03-25T13:27:40.313Z,11.52
2023-03-25T13:30:17.792Z,11.56
2023-03-25T13:32:51.021Z,11.62
2023-03-25T13:35:42.291Z,11.67
2023-03-25T13:38:26.396Z,11.74
2023-03-25T13:41:13.106Z,11.73
2023-03-25T13:43:54.356Z,11.81
2023-03-25T13:46:27.433Z,11.75
2023-03-25T13:49:06.401Z,11.82
2023-03-25T13:51:33.124Z,11.82
2023-03-25T13:54:08.674Z,12.00
2023-03-25T13:57:00.243Z,11.95
2023-03-25T14:00:06.204Z,11.98
2023-03-25T14:02:44.791Z,12.16
2023-03-25T14:05:33.225Z,12.35
2023-03-25T14:08:03.034Z,12.29
2023-03-25T14:10:51.928Z,12.19
2023-03-25T14:13:25.205Z,12.04
2023-03-25T14:15:56.183Z,11.95
2023-03-25T14:18:23.106Z,11.97
2023-03-25T14:20:51.364Z,12.02
2023-03-25T14:23:22.645Z,12.07
2023-03-25T14:25:54.510Z,12.06
2023-03-25T14:28:37.621Z,12.04
2023-03-25T14:31:14.325Z,12.16
2023-03-25T14:33:59.439Z,12.12
2023-03-25T14:36:30.655Z,11.93
2023-03-25T14:38:58.495Z,11.91
2023-03-25T14:42:16.076Z,11.98
2023-03-25T14:44:49.662Z,11.98
2023-03-25T14:47:17.140Z,12.04
2023-03-25T14:49:50.208Z,12.11
2023-03-25T14:52:20.780Z,12.11
2023-03-25T14:54:56.729Z,12.15
2023-03-25T14:57:26.310Z,12.17
2023-03-25T14:59:58.600Z,12.14
2023-03-25T15:02:30.417Z,12.07
2023-03-25T15:05:04.523Z,12.01
2023-03-25T15:07:52.008Z,12.02
2023-03-25T15:10:30.446Z,11.96
2023-03-25T15:13:01.536Z,11.85
2023-03-25T15:15:33.084Z,11.68
2023-03-25T15:18:00.646Z,11.61
2023-03-25T15:20:29.798Z,11.51
2023-03-25T15:23:18.076Z,11.47
2023-03-25T15:25:52.462Z,11.56
2023-03-25T15:28:36.095Z,11.59
2023-03-25T15:31:14.593Z,11.61
2023-03-25T15:34:09.249Z,11.73
2023-03-25T15:36:53.734Z,11.79
2023-03-25T15:39:26.343Z,11.86
2023-03-25T15:42:07.774Z,11.84
2023-03-25T15:44:53.237Z,11.79
2023-03-25T15:47:47.699Z,11.74
2023-03-25T15:50:43.052Z,11.76
2023-03-25T15:53:41.966Z,11.77
2023-03-25T15:56:13.694Z,11.80
2023-03-25T15:58:51.084Z,11.83
2023-03-25T16:01:26.570Z,11.86
2023-03-25T16:04:09.720Z,11.88
2023-03-25T16:06:42.868Z,11.82
2023-03-25T16:09:19.353Z,11.79
2023-03-25T16:11:46.776Z,11.71
2023-03-25T16:14:17.257Z,11.72
2023-03-25T16:16:50.981Z,11.69
2023-03-25T16:19:23.367Z,11.71
2023-03-25T16:21:52.416Z,11.75
2023-03-25T16:24:24.302Z,11.67
2023-03-25T16:26:51.282Z,11.54
2023-03-25T16:29:27.300Z,11.52
2023-03-25T16:31:59.885Z,11.51
2023-03-25T16:34:28.873Z,11.56
2023-03-25T16:36:56.852Z,11.50
2023-03-25T16:39:25.121Z,11.49
2023-03-25T16:41:59.449Z,11.51
2023-03-25T16:44:26.753Z,11.55
2023-03-25T16:46:54.012Z,11.56
2023-03-25T16:49:33.050Z,11.55
2023-03-25T16:52:02.754Z,11.51
2023-03-25T16:54:37.851Z,11.52
2023-03-25T16:57:08.718Z,11.46
2023-03-25T16:59:38.072Z,11.49
2023-03-25T17:02:22.934Z,11.44
2023-03-25T17:04:51.066Z,11.42
2023-03-25T17:07:20.966Z,11.36
2023-03-25T17:09:52.657Z,11.37
2023-03-25T17:12:21.341Z,11.34
2023-03-25T17:14:50.325Z,11.30
2023-03-25T17:17:22.847Z,11.31
2023-03-25T17:19:52.305Z,11.22
2023-03-25T17:22:36.613Z,11.18
2023-03-25T17:25:24.256Z,11.18
2023-03-25T17:27:54.490Z,11.16
2023-03-25T17:30:44.018Z,11.14
2023-03-25T17:33:12.535Z,11.15
2023-03-25T17:35:41.573Z,11.15
2023-03-25T17:38:17.064Z,11.11
2023-03-25T17:40:45.645Z,11.08
2023-03-25T17:43:19.797Z,11.02
2023-03-25T17:45:47.177Z,11.01
2023-03-25T17:48:17.117Z,10.99
2023-03-25T17:50:53.866Z,11.01
2023-03-25T17:53:21.579Z,10.97
2023-03-25T17:55:48.636Z,10.92
2023-03-25T17:58:16.512Z,10.89
2023-03-25T18:00:43.783Z,10.86
2023-03-25T18:03:13.816Z,10.84
2023-03-25T18:05:41.303Z,10.84
2023-03-25T18:08:13.391Z,10.82
2023-03-25T18:10:41.638Z,10.72
2023-03-25T18:13:09.530Z,10.69
2023-03-25T18:15:38.787Z,10.68
2023-03-25T18:18:07.802Z,10.63
2023-03-25T18:20:37.137Z,10.55
2023-03-25T18:23:03.787Z,10.51
2023-03-25T18:25:31.826Z,10.44
2023-03-25T18:27:58.657Z,10.42
2023-03-25T18:30:28.431Z,10.45
2023-03-25T18:32:55.791Z,10.36
2023-03-25T18:35:23.257Z,10.28
2023-03-25T18:37:49.945Z,10.23
2023-03-25T18:40:23.656Z,10.19
2023-03-25T18:42:51.702Z,10.13
2023-03-25T18:45:19.882Z,10.04
2023-03-25T18:47:46.693Z,9.99
2023-03-25T18:50:26.772Z,9.94
2023-03-25T18:52:53.578Z,9.80
2023-03-25T18:55:20.336Z,9.69
2023-03-25T18:57:47.153Z,9.58
2023-03-25T19:00:16.238Z,9.51
2023-03-25T19:02:43.381Z,9.48
2023-03-25T19:05:10.274Z,9.43
2023-03-25T19:07:37.002Z,9.35
2023-03-25T19:10:04.293Z,9.30
2023-03-25T19:12:31.174Z,9.22
2023-03-25T19:14:57.758Z,9.11
2023-03-25T19:17:24.466Z,8.99
2023-03-25T19:19:51.174Z,8.84
2023-03-25T19:22:18.773Z,8.68
2023-03-25T19:24:47.068Z,8.50
2023-03-25T19:27:13.673Z,8.42
2023-03-25T19:29:40.265Z,8.29
2023-03-25T19:32:07.119Z,8.12
2023-03-25T19:34:33.987Z,8.03
2023-03-25T19:37:02.571Z,7.89
2023-03-25T19:39:29.509Z,7.77
2023-03-25T19:41:56.151Z,7.67
2023-03-25T19:44:22.824Z,7.56
2023-03-25T19:46:49.816Z,7.58
2023-03-25T19:49:28.974Z,7.63
2023-03-25T19:52:03.890Z,7.67
2023-03-25T19:54:30.510Z,7.68
2023-03-25T19:56:57.219Z,7.69
2023-03-25T19:59:23.986Z,7.69
2023-03-25T20:01:50.681Z,7.71
2023-03-25T20:04:20.857Z,7.73
2023-03-25T20:06:47.889Z,7.66
2023-03-25T20:09:14.775Z,7.66
2023-03-25T20:11:41.873Z,7.60
2023-03-25T20:14:09.188Z,7.56
2023-03-25T20:16:36.204Z,7.57
2023-03-25T20:19:04.131Z,7.49
2023-03-25T20:21:31.113Z,7.41
2023-03-25T20:23:57.969Z,7.32
2023-03-25T20:26:24.633Z,7.24
2023-03-25T20:28:51.290Z,7.23
2023-03-25T20:31:21.486Z,7.14
2023-03-25T20:33:50.003Z,7.03
2023-03-25T20:36:18.245Z,7.03
2023-03-25T20:38:56.706Z,6.97
2023-03-25T20:41:24.146Z,7.05
2023-03-25T20:43:50.882Z,7.01
2023-03-25T20:46:17.642Z,6.98
2023-03-25T20:48:44.601Z,7.00
2023-03-25T20:51:11.990Z,7.02
2023-03-25T20:53:40.409Z,7.04
2023-03-25T20:56:07.020Z,7.13
2023-03-25T20:58:33.929Z,7.22
2023-03-25T21:01:00.707Z,7.33
2023-03-25T21:03:28.700Z,7.44
2023-03-25T21:06:07.453Z,7.53
2023-03-25T21:08:41.029Z,7.65
2023-03-25T21:11:07.726Z,7.69
2023-03-25T21:13:34.442Z,7.75
2023-03-25T21:16:02.380Z,7.84
2023-03-25T21:18:29.352Z,7.92
2023-03-25T21:20:58.249Z,7.92
2023-03-25T21:23:31.916Z,7.98
2023-03-25T21:26:01.048Z,7.99
2023-03-25T21:28:29.830Z,8.02
2023-03-25T21:31:23.141Z,8.02
2023-03-25T21:33:52.714Z,8.07
2023-03-25T21:36:25.646Z,8.00
2023-03-25T21:38:56.667Z,8.02
2023-03-25T21:41:24.217Z,8.05
2023-03-25T21:43:52.432Z,8.04
2023-03-25T21:46:24.591Z,8.03
2023-03-25T21:48:51.484Z,8.05
2023-03-25T21:51:20.359Z,8.02
2023-03-25T21:53:47.503Z,7.99
2023-03-25T21:56:17.891Z,8.00
2023-03-25T21:58:45.053Z,7.99
2023-03-25T22:01:15.314Z,8.02
2023-03-25T22:03:45.464Z,8.03
2023-03-25T22:06:21.565Z,8.05
2023-03-25T22:08:48.409Z,8.05
2023-03-25T22:11:19.991Z,8.05
2023-03-25T22:13:47.112Z,8.09
2023-03-25T22:16:16.066Z,8.09
2023-03-25T22:18:44.026Z,8.08
2023-03-25T22:21:14.650Z,8.06
2023-03-25T22:23:42.964Z,8.07
2023-03-25T22:26:11.004Z,8.07
2023-03-25T22:28:38.786Z,8.09
2023-03-25T22:31:14.406Z,8.08
2023-03-25T22:33:41.625Z,8.08
2023-03-25T22:36:15.924Z,8.07
2023-03-25T22:38:45.613Z,8.05
2023-03-25T22:41:14.594Z,8.06
2023-03-25T22:43:42.114Z,8.00
2023-03-25T22:46:10.467Z,7.95
2023-03-25T22:48:40.160Z,7.93
2023-03-25T22:51:12.074Z,7.90
2023-03-25T22:53:39.295Z,7.90
2023-03-25T22:56:06.896Z,7.90
2023-03-25T22:58:34.117Z,7.88
2023-03-25T23:01:02.788Z,7.80
2023-03-25T23:03:31.084Z,7.75
2023-03-25T23:05:58.945Z,7.74
2023-03-25T23:08:30.008Z,7.75
2023-03-25T23:10:59.143Z,7.74
2023-03-25T23:13:30.240Z,7.73
2023-03-25T23:15:58.864Z,7.74
2023-03-25T23:18:25.454Z,7.79
2023-03-25T23:20:52.610Z,7.80
2023-03-25T23:23:22.395Z,7.80
2023-03-25T23:26:05.542Z,7.80
2023-03-25T23:28:36.178Z,7.83
2023-03-25T23:31:20.179Z,7.86
2023-03-25T23:33:48.007Z,7.86
2023-03-25T23:36:15.811Z,7.85
2023-03-25T23:38:44.196Z,7.82
2023-03-25T23:41:13.145Z,7.86
2023-03-25T23:43:40.075Z,7.83
2023-03-25T23:46:08.390Z,7.80
2023-03-25T23:48:40.917Z,7.77
2023-03-25T23:51:12.636Z,7.73
2023-03-25T23:53:41.398Z,7.72
2023-03-25T23:56:08.196Z,7.67
2023-03-25T23:58:35.160Z,7.62
